Latest Weather Observations for Jandakot

IDW60901

Issued at 9:05 pm WST Thursday 28 August 2014 (issued every 10 minutes, with the page automatically refreshed every 10 minutes)

About weather observations | Map of Perth area stations | Latest observations for Perth area | Other Formats
Station Details ID: 009172 Name: JANDAKOT AERO Lat: -32.10 Lon: 115.88 Height: 30.0 m
Data from the previous 72 hours. | See also: Recent months at Jandakot
Date/Time
WST
Tmp

°C
App
Tmp
°C
Dew
Point
°C
Rel
Hum
%
Delta-T

°C
Wind Press
QNH
hPa
Press
MSL
hPa
Rain
since
9 am
mm
Dir
 
Spd
km/h
Gust
km/h
Spd
kts
Gust
kts
28/09:00pm 18.6 18.5 16.9 90 1.0 NNW 13 19 7 10 1015.8 1015.7 0.0
28/08:30pm 18.4 18.6 16.7 90 1.0 NNW 11 15 6 8 1015.9 - 0.0
28/08:00pm 18.7 18.9 16.7 88 1.2 NNW 11 15 6 8 1015.6 - 0.0
28/07:30pm 18.9 18.2 16.4 85 1.5 NNW 15 19 8 10 1015.6 - 0.0
28/07:00pm 19.0 18.5 16.0 83 1.8 NNW 13 19 7 10 1015.5 - 0.0
28/06:30pm 19.1 18.5 15.7 80 2.0 NNW 13 17 7 9 1015.2 - 0.0
28/06:00pm 19.6 18.5 15.2 76 2.6 NNW 15 20 8 11 1015.1 1015.0 0.0
28/05:30pm 20.1 17.7 14.4 69 3.3 NNW 20 28 11 15 1014.9 - 0.0
28/05:00pm 20.4 18.0 14.4 68 3.5 NNW 20 28 11 15 1014.8 - 0.0
28/04:30pm 20.7 17.6 14.4 67 3.7 NNW 24 35 13 19 1014.6 - 0.0
28/04:00pm 20.9 17.9 13.6 63 4.2 NW 22 30 12 16 1014.9 - 0.0
28/03:30pm 21.4 17.0 12.8 58 4.9 NW 28 35 15 19 1014.8 - 0.0
28/03:00pm 21.7 16.5 10.3 48 6.2 NW 28 37 15 20 1014.9 1014.8 0.0
28/02:30pm 22.5 18.1 10.5 46 6.6 NW 24 33 13 18 1015.0 - 0.0
28/02:00pm 23.2 17.2 8.8 39 7.7 NW 30 43 16 23 1015.2 - 0.0
28/01:30pm 22.4 16.1 7.4 38 7.8 NNW 30 39 16 21 1015.2 - 0.0
28/01:00pm 22.6 16.1 6.6 35 8.2 NNW 30 39 16 21 1015.5 - 0.0
28/12:30pm 23.1 17.1 7.1 35 8.3 NNW 28 37 15 20 1015.9 - 0.0
28/12:00pm 22.4 16.4 5.1 32 8.6 NNW 26 33 14 18 1016.0 1015.9 0.0
28/11:30am 21.4 17.6 7.4 40 7.2 N 17 20 9 11 1016.4 - 0.0
28/11:00am 20.1 16.4 8.1 46 6.2 N 17 22 9 12 1016.6 - 0.0
28/10:30am 18.0 14.9 9.0 55 4.7 N 15 20 8 11 1016.6 - 0.0
28/10:00am 17.4 13.6 9.1 58 4.3 N 19 24 10 13 1016.8 - 0.0
28/09:30am 16.2 12.3 8.8 61 3.8 N 19 22 10 12 1016.9 - 0.0
28/09:00am 15.9 12.0 8.6 62 3.7 N 19 24 10 13 1017.2 1017.1 -
28/08:30am 14.7 10.8 8.8 68 3.0 N 19 24 10 13 1016.9 - -
28/08:00am 14.1 10.7 9.0 71 2.6 N 17 20 9 11 1016.9 - -
28/07:30am 13.1 10.5 9.4 78 1.9 N 13 17 7 9 1016.9 - -
28/07:00am 12.7 10.0 8.9 78 1.9 N 13 17 7 9 1016.7 - -
28/06:30am 12.6 9.9 8.8 77 1.9 N 13 15 7 8 1016.6 - -
28/06:00am 12.2 9.5 9.0 81 1.6 N 13 15 7 8 1016.3 1016.2 -
28/05:30am 11.7 9.4 9.1 84 1.3 N 11 13 6 7 1016.4 - -
28/05:00am 11.5 8.9 9.5 87 1.0 N 13 15 7 8 1016.2 - -
28/04:30am 10.1 8.3 9.3 95 0.4 NNE 9 11 5 6 1016.2 - -
28/04:00am 9.6 9.3 8.8 95 0.4 CALM 0 0 0 0 1016.3 - -
28/03:30am 9.5 9.2 8.7 95 0.4 CALM 0 0 0 0 1016.4 - -
28/03:00am 9.7 9.5 8.9 95 0.4 CALM 0 0 0 0 1016.4 1016.3 -
28/02:30am 9.6 8.0 8.8 95 0.4 NNE 7 9 4 5 1016.7 - -
28/02:00am 9.4 8.7 8.6 95 0.4 ENE 2 7 1 4 1017.1 - -
28/01:30am 9.3 8.6 8.5 95 0.4 ENE 2 7 1 4 1017.4 - -
28/01:00am 9.7 9.4 8.5 92 0.6 CALM 0 0 0 0 1017.8 - -
28/12:30am 9.4 9.0 8.2 92 0.6 CALM 0 0 0 0 1017.9 - -
28/12:00am 8.8 8.3 7.7 93 0.5 NE 0 0 0 0 1018.1 1018.1 -
 
Date/Time
WST
Tmp

°C
App
Tmp
°C
Dew
Point
°C
Rel
Hum
%
Delta-T

°C
Wind Press
QNH
hPa
Press
MSL
hPa
Rain
since
9 am
mm
Dir
 
Spd
km/h
Gust
km/h
Spd
kts
Gust
kts
27/11:30pm 8.7 6.8 7.6 93 0.5 ENE 7 9 4 5 1018.4 - -
27/11:00pm 9.2 8.1 8.4 95 0.4 NNE 4 11 2 6 1019.0 - -
27/10:30pm 10.3 10.0 8.7 90 0.8 CALM 0 0 0 0 1019.4 - -
27/10:00pm 11.4 10.2 9.6 89 0.9 NE 6 9 3 5 1019.7 - -
27/09:30pm 11.8 10.5 9.8 87 1.0 NE 7 9 4 5 1019.5 - -
27/09:00pm 11.7 10.0 9.7 87 1.0 ENE 9 13 5 7 1019.7 1019.7 -
27/08:30pm 11.7 9.9 9.5 86 1.1 NE 9 11 5 6 1020.0 - -
27/08:00pm 12.8 12.9 10.1 84 1.4 CALM 0 0 0 0 1020.2 - -
27/07:30pm 12.2 10.5 9.8 85 1.2 NE 9 11 5 6 1019.9 - -
27/07:00pm 12.8 12.8 9.7 81 1.6 CALM 0 0 0 0 1020.0 - -
27/06:30pm 14.8 14.9 10.2 74 2.4 CALM 0 0 0 0 1020.1 - -
27/06:00pm 16.4 15.1 9.9 65 3.4 SW 7 9 4 5 1020.1 1020.1 -
27/05:30pm 17.5 14.9 9.2 58 4.3 WSW 13 19 7 10 1020.1 - -
27/05:00pm 18.1 15.1 9.3 56 4.6 WSW 15 19 8 10 1019.6 - -
27/04:30pm 18.7 15.4 9.4 54 4.9 W 17 26 9 14 1019.7 - -
27/04:00pm 19.1 14.9 9.9 55 4.9 W 22 30 12 16 1019.9 - -
27/03:30pm 19.5 15.1 8.8 50 5.6 W 22 35 12 19 1019.6 - -
27/03:00pm 20.2 15.9 10.6 54 5.2 W 24 32 13 17 1019.4 1019.4 -
27/02:30pm 20.0 16.3 11.5 58 4.7 NNW 22 30 12 16 1019.1 - -
27/02:00pm 19.6 16.6 11.8 60 4.3 WNW 19 24 10 13 1019.0 - -
27/09:30am 15.9 14.4 12.0 77 2.1 ENE 11 19 6 10 1022.1 - 0.0
27/09:00am 14.4 12.4 11.4 82 1.6 ENE 13 17 7 9 1022.1 1022.1 0.0
27/08:30am 13.4 11.4 11.5 88 1.0 ENE 13 17 7 9 1022.3 - 0.0
27/08:00am 12.0 11.3 11.4 96 0.3 ENE 6 11 3 6 1022.3 - 0.0
27/07:30am 10.7 10.8 10.1 96 0.3 CALM 0 0 0 0 1022.0 - 0.0
27/07:00am 9.8 9.6 9.0 95 0.4 CALM 0 0 0 0 1021.8 - 0.0
27/06:30am 9.6 8.6 8.8 95 0.4 SE 4 6 2 3 1021.2 - 0.0
27/06:00am 10.0 8.8 9.4 96 0.3 SE 6 9 3 5 1021.0 1021.0 0.0
27/05:30am 9.7 7.8 9.1 96 0.3 SSE 9 9 5 5 1021.0 - 0.0
27/05:00am 10.1 8.6 9.1 93 0.5 SE 7 11 4 6 1021.1 - 0.0
27/04:30am 10.5 9.3 9.5 93 0.5 SE 6 7 3 4 1021.1 - 0.0
27/04:00am 10.2 8.7 9.0 92 0.6 SSE 7 9 4 5 1021.1 - 0.0
27/03:30am 10.5 9.0 9.3 92 0.6 S 7 9 4 5 1021.5 - 0.0
27/03:00am 10.6 9.3 9.2 91 0.7 S 6 9 3 5 1021.6 1021.6 0.0
27/02:30am 10.4 8.8 8.8 90 0.8 S 7 9 4 5 1021.7 - 0.0
27/02:00am 11.4 9.9 9.2 86 1.1 S 7 9 4 5 1021.8 - 0.0
27/01:30am 11.4 9.9 9.2 86 1.1 S 7 11 4 6 1022.1 - 0.0
27/01:00am 11.1 10.9 9.1 87 1.0 CALM 0 6 0 3 1022.5 - 0.0
27/12:30am 10.2 9.2 8.8 91 0.7 S 4 7 2 4 1022.7 - 0.0
27/12:00am 9.5 7.9 8.0 90 0.7 SSW 6 7 3 4 1022.8 1022.8 0.0
 
Date/Time
WST
Tmp

°C
App
Tmp
°C
Dew
Point
°C
Rel
Hum
%
Delta-T

°C
Wind Press
QNH
hPa
Press
MSL
hPa
Rain
since
9 am
mm
Dir
 
Spd
km/h
Gust
km/h
Spd
kts
Gust
kts
26/11:30pm 9.4 7.6 7.9 90 0.7 SSW 7 7 4 4 1022.9 - 0.0
26/11:00pm 9.6 8.4 7.9 89 0.8 S 4 7 2 4 1023.1 - 0.0
26/10:30pm 10.1 8.4 8.2 88 0.9 S 7 9 4 5 1023.3 - 0.0
26/10:00pm 11.6 9.6 8.8 83 1.4 SSW 9 13 5 7 1023.6 - 0.0
26/09:30pm 10.9 9.0 8.9 87 1.0 SSW 9 11 5 6 1023.7 - 0.0
26/09:00pm 11.6 10.3 9.8 89 0.9 SE 7 9 4 5 1023.7 1023.7 0.0
26/08:30pm 13.0 10.9 9.9 81 1.6 S 11 11 6 6 1023.6 - 0.0
26/08:00pm 13.7 11.3 10.2 79 1.8 SSW 13 15 7 8 1023.7 - 0.0
26/07:30pm 13.7 11.7 10.0 78 1.9 SW 11 15 6 8 1023.6 - 0.0
26/07:00pm 14.6 12.7 10.4 76 2.2 SSW 11 13 6 7 1023.3 - 0.0
26/06:30pm 15.0 13.0 10.2 73 2.5 SW 11 13 6 7 1023.0 - 0.0
26/06:00pm 16.0 14.5 10.5 70 2.9 SW 9 11 5 6 1022.9 1022.9 0.0
26/05:30pm 17.7 16.4 10.1 61 4.0 SSW 7 11 4 6 1022.6 - 0.0
26/05:00pm 18.3 15.6 10.4 60 4.2 SW 15 19 8 10 1022.4 - 0.0
26/04:30pm 18.9 16.5 10.1 56 4.7 S 13 17 7 9 1022.3 - 0.0
26/04:00pm 19.7 18.2 10.4 55 5.0 S 9 19 5 10 1022.2 - 0.0
26/03:30pm 19.5 17.7 9.5 52 5.3 SSW 9 15 5 8 1022.1 - 0.0
26/03:00pm 18.5 16.5 10.0 57 4.5 S 11 15 6 8 1022.2 1022.2 0.0
26/02:30pm 19.1 16.3 10.1 56 4.8 S 15 24 8 13 1022.2 - 0.0
26/02:00pm 18.7 15.8 9.6 55 4.8 S 15 20 8 11 1022.4 - 0.0
26/01:30pm 18.1 15.0 10.4 60 4.1 S 17 26 9 14 1022.9 - 0.0
26/01:00pm 18.5 15.5 10.5 59 4.3 S 17 28 9 15 1023.0 - 0.0
26/12:30pm 18.5 15.6 10.9 61 4.1 S 17 26 9 14 1023.3 - 0.0
26/12:00pm 17.9 15.3 10.8 63 3.8 S 15 24 8 13 1023.7 1023.7 0.0
26/11:30am 17.2 13.9 10.8 66 3.4 S 19 28 10 15 1023.9 - 0.0
26/11:00am 16.8 14.4 11.4 70 2.9 S 15 22 8 12 1023.8 - 0.0
26/10:30am 16.2 13.3 12.4 78 2.1 S 19 26 10 14 1024.0 - 0.0
26/10:08am 16.4 12.8 11.8 74 2.5 S 22 30 12 16 1023.9 - 0.0
26/10:00am 16.5 13.6 12.3 76 2.3 S 19 26 10 14 1023.8 - 0.0
26/09:30am 15.6 12.5 13.3 86 1.3 S 22 33 12 18 1023.9 - 0.0
26/09:00am 15.8 13.2 13.7 87 1.2 S 20 30 11 16 1023.7 1023.7 0.2
26/08:30am 15.5 12.6 14.1 91 0.8 SSW 22 35 12 19 1023.3 - 0.2
26/08:17am 15.5 13.7 14.4 93 0.6 SSW 17 26 9 14 1023.0 - 0.2
26/08:03am 15.9 13.8 14.7 93 0.7 SW 19 30 10 16 1022.7 - 0.2
26/08:00am 15.9 13.5 14.5 91 0.8 SW 20 30 11 16 1022.7 - 0.2
26/07:59am 16.1 13.7 14.5 90 0.9 SW 20 30 11 16 1022.7 - 0.2
26/07:30am 16.7 14.5 14.8 88 1.1 SW 20 28 11 15 1022.4 - 0.2
26/07:00am 17.0 15.0 14.9 87 1.2 W 19 24 10 13 1022.0 - 0.2
26/06:30am 16.8 16.3 14.9 88 1.1 WSW 11 20 6 11 1021.7 - 0.2
26/06:00am 16.8 16.8 15.1 90 1.0 W 9 11 5 6 1021.2 1021.2 0.2
26/05:30am 17.2 15.1 15.3 88 1.1 W 20 30 11 16 1021.0 - 0.2
26/05:00am 17.2 14.9 15.7 91 0.9 WSW 22 35 12 19 1020.8 - 0.2
26/04:55am 17.1 13.7 15.7 91 0.8 WSW 28 37 15 20 1020.6 - 0.2
26/04:30am 13.2 12.9 12.6 96 0.3 NE 6 9 3 5 1020.5 - 0.2
26/04:00am 13.3 13.4 12.6 95 0.4 NE 4 7 2 4 1020.0 - 0.2
26/03:30am 13.7 12.9 12.8 94 0.5 NNE 9 11 5 6 1019.8 - 0.0
26/03:00am 13.2 12.2 12.3 94 0.5 NNE 9 11 5 6 1020.0 1020.0 0.0
26/02:30am 13.4 12.5 12.5 94 0.5 N 9 11 5 6 1020.1 - 0.0
26/02:00am 13.5 11.8 12.6 94 0.5 NNE 13 15 7 8 1020.0 - 0.0
26/01:30am 13.5 12.2 12.4 93 0.6 NNE 11 13 6 7 1020.0 - 0.0
26/01:00am 14.2 13.0 12.7 91 0.8 N 11 13 6 7 1020.2 - 0.0
26/12:30am 14.5 12.9 12.9 90 0.9 N 13 15 7 8 1020.2 - 0.0
26/12:00am 14.6 13.0 12.8 89 1.0 NNE 13 15 7 8 1020.5 1020.5 0.0
 
Date/Time
WST
Tmp

°C
App
Tmp
°C
Dew
Point
°C
Rel
Hum
%
Delta-T

°C
Wind Press
QNH
hPa
Press
MSL
hPa
Rain
since
9 am
mm
Dir
 
Spd
km/h
Gust
km/h
Spd
kts
Gust
kts
25/11:30pm 14.7 13.1 12.7 88 1.1 NNE 13 15 7 8 1020.8 - 0.0
25/11:00pm 14.4 12.8 12.9 91 0.8 NNE 13 15 7 8 1021.1 - 0.0
25/10:30pm 15.3 14.5 13.9 91 0.8 NNE 11 13 6 7 1021.3 - 0.0
25/10:00pm 16.7 16.2 14.8 88 1.1 N 11 13 6 7 1021.5 - 0.0
25/09:30pm 16.8 16.5 14.3 85 1.4 N 9 11 5 6 1021.6 - 0.0

Latest Capital City Observations: Canberra | Sydney | Melbourne | Brisbane | Adelaide | Perth | Hobart | Darwin

Other Formats:

Comma delimited format used in spreadsheet applications
http://www.bom.gov.au/fwo/IDW60901/IDW60901.94609.axf

JavaScript Object Notation format (JSON) in row-major order
http://www.bom.gov.au/fwo/IDW60901/IDW60901.94609.json